createdAt,value
2022-09-03T00:00:41.988Z,50.86
2022-09-03T00:03:20.510Z,50.88
2022-09-03T00:05:55.526Z,50.71
2022-09-03T00:08:25.035Z,51.21
2022-09-03T00:11:17.561Z,51.25
2022-09-03T00:13:51.444Z,51.33
2022-09-03T00:16:21.797Z,51.58
2022-09-03T00:18:54.465Z,51.49
2022-09-03T00:21:34.140Z,51.41
2022-09-03T00:24:04.536Z,51.47
2022-09-03T00:26:35.990Z,51.60
2022-09-03T00:29:09.844Z,51.47
2022-09-03T00:31:42.848Z,51.72
2022-09-03T00:34:21.219Z,52.17
2022-09-03T00:36:47.758Z,52.06
2022-09-03T00:39:20.633Z,52.26
2022-09-03T00:42:24.966Z,52.44
2022-09-03T00:44:56.829Z,52.30
2022-09-03T00:47:38.593Z,52.29
2022-09-03T00:50:41.281Z,52.63
2022-09-03T00:53:32.286Z,52.50
2022-09-03T00:56:04.278Z,52.79
2022-09-03T00:58:44.715Z,52.73
2022-09-03T01:01:26.376Z,52.70
2022-09-03T01:04:21.575Z,53.06
2022-09-03T01:07:09.109Z,52.88
2022-09-03T01:10:01.190Z,53.14
2022-09-03T01:12:39.871Z,53.36
2022-09-03T01:15:15.362Z,53.17
2022-09-03T01:17:50.493Z,53.73
2022-09-03T01:20:35.492Z,53.54
2022-09-03T01:23:17.143Z,53.68
2022-09-03T01:26:05.364Z,53.75
2022-09-03T01:29:12.124Z,54.05
2022-09-03T01:31:57.938Z,54.24
2022-09-03T01:34:56.960Z,54.26
2022-09-03T01:37:47.037Z,53.73
2022-09-03T01:40:40.686Z,53.96
2022-09-03T01:43:34.136Z,53.87
2022-09-03T01:46:19.046Z,54.23
2022-09-03T01:49:00.605Z,54.68
2022-09-03T01:51:32.235Z,54.57
2022-09-03T01:54:21.541Z,54.02
2022-09-03T01:57:19.128Z,54.24
2022-09-03T02:00:04.290Z,54.76
2022-09-03T02:02:31.677Z,54.91
2022-09-03T02:05:01.324Z,54.80
2022-09-03T02:07:34.678Z,54.70
2022-09-03T02:10:02.609Z,54.71
2022-09-03T02:12:33.574Z,55.41
2022-09-03T02:15:03.893Z,55.30
2022-09-03T02:17:33.755Z,55.43
2022-09-03T02:20:06.688Z,55.35
2022-09-03T02:22:34.129Z,55.50
2022-09-03T02:25:01.179Z,55.36
2022-09-03T02:27:28.098Z,55.39
2022-09-03T02:29:54.642Z,55.47
2022-09-03T02:32:21.196Z,55.67
2022-09-03T02:34:47.910Z,55.59
2022-09-03T02:37:15.595Z,55.37
2022-09-03T02:39:42.488Z,55.62
2022-09-03T02:42:11.341Z,55.91
2022-09-03T02:44:45.019Z,56.24
2022-09-03T02:47:11.474Z,55.57
2022-09-03T02:49:38.297Z,55.62
2022-09-03T02:52:09.523Z,55.59
2022-09-03T02:54:40.079Z,55.71
2022-09-03T02:57:13.649Z,55.66
2022-09-03T02:59:41.665Z,55.73
2022-09-03T03:02:08.608Z,55.47
2022-09-03T03:04:35.239Z,55.67
2022-09-03T03:07:01.680Z,55.94
2022-09-03T03:09:29.502Z,55.79
2022-09-03T03:11:56.150Z,55.88
2022-09-03T03:14:23.377Z,55.96
2022-09-03T03:16:50.870Z,56.26
2022-09-03T03:19:17.816Z,55.85
2022-09-03T03:21:44.578Z,56.31
2022-09-03T03:24:11.330Z,56.46
2022-09-03T03:26:37.887Z,56.23
2022-09-03T03:29:04.876Z,56.67
2022-09-03T03:31:31.545Z,56.49
2022-09-03T03:34:00.485Z,56.69
2022-09-03T03:36:30.038Z,56.61
2022-09-03T03:38:58.295Z,56.74
2022-09-03T03:41:27.229Z,56.79
2022-09-03T03:43:58.112Z,56.48
2022-09-03T03:46:25.928Z,56.67
2022-09-03T03:48:52.802Z,57.00
2022-09-03T03:51:22.384Z,56.68
2022-09-03T03:53:49.045Z,57.20
2022-09-03T03:56:16.461Z,56.96
2022-09-03T03:58:44.140Z,57.24
2022-09-03T04:01:22.258Z,57.49
2022-09-03T04:03:48.881Z,57.09
2022-09-03T04:06:17.812Z,57.36
2022-09-03T04:08:47.321Z,57.69
2022-09-03T04:11:21.742Z,57.92
2022-09-03T04:13:49.159Z,57.79
2022-09-03T04:16:20.964Z,58.08
2022-09-03T04:18:50.574Z,58.19
2022-09-03T04:21:22.610Z,58.33
2022-09-03T04:23:51.833Z,57.91
2022-09-03T04:26:23.568Z,57.90
2022-09-03T04:28:50.232Z,58.31
2022-09-03T04:31:22.457Z,58.07
2022-09-03T04:33:52.211Z,58.09
2022-09-03T04:36:20.910Z,57.88
2022-09-03T04:38:53.493Z,58.53
2022-09-03T04:41:24.894Z,59.01
2022-09-03T04:43:52.968Z,58.53
2022-09-03T04:46:21.268Z,58.69
2022-09-03T04:48:52.689Z,58.79
2022-09-03T04:51:23.283Z,58.48
2022-09-03T04:53:57.317Z,58.45
2022-09-03T04:56:28.823Z,58.73
2022-09-03T04:59:01.386Z,58.52
2022-09-03T05:01:30.002Z,58.48
2022-09-03T05:03:58.006Z,58.34
2022-09-03T05:06:25.726Z,58.67
2022-09-03T05:08:54.291Z,58.83
2022-09-03T05:11:21.493Z,58.26
2022-09-03T05:13:53.812Z,58.76
2022-09-03T05:16:21.726Z,58.98
2022-09-03T05:18:48.746Z,58.48
2022-09-03T05:21:17.275Z,58.60
2022-09-03T05:23:45.813Z,58.87
2022-09-03T05:26:34.167Z,58.83
2022-09-03T05:29:02.559Z,58.66
2022-09-03T05:31:31.499Z,58.64
2022-09-03T05:34:00.471Z,58.70
2022-09-03T05:36:29.496Z,58.80
2022-09-03T05:38:56.396Z,59.08
2022-09-03T05:41:25.531Z,58.86
2022-09-03T05:43:59.437Z,59.37
2022-09-03T05:46:32.266Z,59.04
2022-09-03T05:49:01.395Z,58.51
2022-09-03T05:51:29.123Z,58.21
2022-09-03T05:53:55.855Z,58.93
2022-09-03T05:56:24.519Z,57.89
2022-09-03T05:58:53.746Z,58.45
2022-09-03T06:01:23.259Z,58.04
2022-09-03T06:03:58.346Z,58.53
2022-09-03T06:06:27.121Z,58.15
2022-09-03T06:08:55.408Z,57.23
2022-09-03T06:11:28.073Z,57.76
2022-09-03T06:13:56.703Z,57.50
2022-09-03T06:16:30.652Z,57.63
2022-09-03T06:19:01.687Z,57.56
2022-09-03T06:21:29.509Z,57.25
2022-09-03T06:23:59.483Z,57.41
2022-09-03T06:26:29.326Z,57.25
2022-09-03T06:28:56.821Z,56.77
2022-09-03T06:31:24.865Z,56.64
2022-09-03T06:33:53.018Z,56.39
2022-09-03T06:36:25.079Z,56.23
2022-09-03T06:38:53.584Z,55.41
2022-09-03T06:41:25.931Z,55.57
2022-09-03T06:43:55.630Z,54.72
2022-09-03T06:46:23.948Z,55.05
2022-09-03T06:48:51.624Z,54.63
2022-09-03T06:51:23.759Z,54.40
2022-09-03T06:53:52.848Z,54.03
2022-09-03T06:56:27.423Z,54.05
2022-09-03T06:58:59.379Z,53.86
2022-09-03T07:01:31.195Z,54.91
2022-09-03T07:04:00.967Z,54.41
2022-09-03T07:06:33.070Z,54.86
2022-09-03T07:09:00.168Z,54.09
2022-09-03T07:11:29.277Z,53.68
2022-09-03T07:13:56.234Z,54.08
2022-09-03T07:16:29.726Z,53.86
2022-09-03T07:18:57.153Z,52.99
2022-09-03T07:21:26.047Z,53.49
2022-09-03T07:23:53.795Z,54.14
2022-09-03T07:26:26.376Z,54.58
2022-09-03T07:28:54.217Z,53.52
2022-09-03T07:31:26.035Z,53.32
2022-09-03T07:33:57.310Z,53.26
2022-09-03T07:36:27.212Z,53.43
2022-09-03T07:38:59.091Z,53.26
2022-09-03T07:41:28.245Z,52.86
2022-09-03T07:43:55.763Z,53.09
2022-09-03T07:46:24.622Z,52.73
2022-09-03T07:48:55.449Z,52.64
2022-09-03T07:51:26.554Z,52.66
2022-09-03T07:53:56.043Z,51.96
2022-09-03T07:56:22.980Z,52.01
2022-09-03T07:58:55.233Z,51.91
2022-09-03T08:01:24.049Z,51.92
2022-09-03T08:03:53.174Z,52.41
2022-09-03T08:06:24.802Z,51.16
2022-09-03T08:09:02.171Z,50.57
2022-09-03T08:11:31.542Z,52.06
2022-09-03T08:14:02.551Z,51.40
2022-09-03T08:16:31.521Z,50.83
2022-09-03T08:18:59.059Z,50.66
2022-09-03T08:21:26.864Z,51.09
2022-09-03T08:23:54.771Z,50.17
2022-09-03T08:26:22.220Z,50.18
2022-09-03T08:28:49.719Z,49.52
2022-09-03T08:31:19.973Z,49.83
2022-09-03T08:33:52.212Z,50.63
2022-09-03T08:36:24.565Z,50.18
2022-09-03T08:38:55.111Z,49.77
2022-09-03T08:41:46.515Z,49.54
2022-09-03T08:44:51.824Z,48.34
2022-09-03T08:47:59.995Z,48.27
2022-09-03T08:50:35.537Z,47.93
2022-09-03T08:53:20.212Z,48.09
2022-09-03T08:56:07.393Z,46.90
2022-09-03T08:58:38.333Z,47.51
2022-09-03T09:01:27.824Z,46.96
2022-09-03T09:04:05.869Z,47.60
2022-09-03T09:06:40.384Z,47.36
2022-09-03T09:09:26.665Z,47.46
2022-09-03T09:11:55.900Z,47.03
2022-09-03T09:14:36.947Z,47.24
2022-09-03T09:17:28.159Z,47.26
2022-09-03T09:20:09.402Z,47.30
2022-09-03T09:22:47.421Z,47.45
2022-09-03T09:25:18.772Z,47.53
2022-09-03T09:27:51.962Z,46.77
2022-09-03T09:30:19.987Z,47.52
2022-09-03T09:32:47.255Z,46.98
2022-09-03T09:35:18.888Z,46.61
2022-09-03T09:37:57.030Z,46.42
2022-09-03T09:40:35.144Z,45.34
2022-09-03T09:43:10.932Z,45.01
2022-09-03T09:45:43.506Z,44.66
2022-09-03T09:48:24.002Z,44.75
2022-09-03T09:50:50.658Z,45.20
2022-09-03T09:53:21.484Z,45.18
2022-09-03T09:55:58.108Z,45.37
2022-09-03T09:58:30.891Z,44.46
2022-09-03T10:01:04.090Z,43.64
2022-09-03T10:03:35.626Z,44.38
2022-09-03T10:06:32.504Z,44.44
2022-09-03T10:09:12.118Z,43.57
2022-09-03T10:11:42.949Z,43.15
2022-09-03T10:14:24.450Z,43.52
2022-09-03T10:16:59.591Z,42.82
2022-09-03T10:19:40.281Z,44.21
2022-09-03T10:22:17.950Z,43.62
2022-09-03T10:24:59.132Z,44.06
2022-09-03T10:27:25.942Z,42.91
2022-09-03T10:29:53.409Z,42.64
2022-09-03T10:32:36.911Z,42.14
2022-09-03T10:35:21.968Z,42.42
2022-09-03T10:38:02.836Z,41.83
2022-09-03T10:40:35.128Z,41.66
2022-09-03T10:43:44.927Z,41.46
2022-09-03T10:46:20.621Z,40.28
2022-09-03T10:49:30.074Z,41.95
2022-09-03T10:52:08.941Z,43.05
2022-09-03T10:54:44.635Z,38.87
2022-09-03T10:57:20.607Z,39.33
2022-09-03T10:59:56.220Z,40.28
2022-09-03T11:02:29.062Z,39.20
2022-09-03T11:05:19.624Z,38.63
2022-09-03T11:07:54.116Z,38.59
2022-09-03T11:10:33.281Z,38.70
2022-09-03T11:13:09.649Z,38.74
2022-09-03T11:15:51.661Z,38.71
2022-09-03T11:18:25.878Z,37.87
2022-09-03T11:20:57.217Z,37.65
2022-09-03T11:23:25.654Z,37.59
2022-09-03T11:25:57.597Z,36.96
2022-09-03T11:28:52.104Z,36.98
2022-09-03T11:31:57.743Z,37.56
2022-09-03T11:34:32.543Z,37.90
2022-09-03T11:37:22.014Z,37.34
2022-09-03T11:40:04.316Z,36.36
2022-09-03T11:42:36.838Z,36.10
2022-09-03T11:45:21.550Z,35.81
2022-09-03T11:47:52.372Z,37.13
2022-09-03T11:50:22.133Z,37.50
2022-09-03T11:52:51.761Z,35.43
2022-09-03T11:55:37.590Z,35.21
2022-09-03T11:58:36.396Z,35.95
2022-09-03T12:01:09.025Z,35.07
2022-09-03T12:04:03.539Z,34.80
2022-09-03T12:06:45.849Z,36.10
2022-09-03T12:09:31.305Z,33.95
2022-09-03T12:12:16.301Z,35.07
2022-09-03T12:15:04.163Z,34.77
2022-09-03T12:18:10.861Z,35.03
2022-09-03T12:20:37.623Z,34.33
2022-09-03T12:23:04.182Z,34.95
2022-09-03T12:25:30.830Z,34.41
2022-09-03T12:28:01.308Z,34.59
2022-09-03T12:30:30.342Z,34.40
2022-09-03T12:33:07.951Z,35.03
2022-09-03T12:38:26.155Z,34.36
2022-09-03T12:43:42.407Z,33.92
2022-09-03T12:46:16.041Z,33.00
2022-09-03T12:51:52.162Z,32.86
2022-09-03T12:54:21.339Z,34.61
2022-09-03T12:57:00.158Z,33.85
2022-09-03T12:59:31.726Z,34.18
2022-09-03T13:02:12.829Z,34.20
2022-09-03T13:04:41.246Z,33.36
2022-09-03T13:07:33.528Z,32.22
2022-09-03T13:10:07.815Z,33.30
2022-09-03T13:12:53.463Z,32.37
2022-09-03T13:15:23.863Z,32.52
2022-09-03T13:18:07.765Z,32.58
2022-09-03T13:20:34.786Z,33.55
2022-09-03T13:23:20.982Z,33.48
2022-09-03T13:25:53.856Z,32.73
2022-09-03T13:28:29.809Z,33.07
2022-09-03T13:31:34.032Z,32.77
2022-09-03T13:34:09.482Z,32.45
2022-09-03T13:36:49.026Z,32.63
2022-09-03T13:39:18.729Z,32.04
2022-09-03T13:41:58.112Z,31.48
2022-09-03T13:44:38.139Z,32.04
2022-09-03T13:47:25.839Z,31.46
2022-09-03T13:50:37.231Z,31.54
2022-09-03T13:53:22.722Z,30.61
2022-09-03T13:55:54.735Z,32.61
2022-09-03T13:58:44.939Z,31.12
2022-09-03T14:01:37.046Z,32.03
2022-09-03T14:04:03.801Z,32.21
2022-09-03T14:06:50.764Z,29.40
2022-09-03T14:09:35.524Z,31.26
2022-09-03T14:12:25.130Z,30.58
2022-09-03T14:15:29.670Z,30.71
2022-09-03T14:18:28.889Z,31.59
2022-09-03T14:20:58.773Z,31.00
2022-09-03T14:23:59.692Z,30.96
2022-09-03T14:26:39.586Z,32.24
2022-09-03T14:29:12.653Z,32.11
2022-09-03T14:31:52.047Z,32.57
2022-09-03T14:34:31.225Z,31.50
2022-09-03T14:37:21.245Z,32.72
2022-09-03T14:40:13.464Z,33.56
2022-09-03T14:43:10.561Z,31.71
2022-09-03T14:45:53.540Z,31.05
2022-09-03T14:48:29.221Z,32.20
2022-09-03T14:50:58.860Z,32.22
2022-09-03T14:54:06.964Z,31.86
2022-09-03T14:57:13.281Z,32.12
2022-09-03T14:59:49.125Z,30.89
2022-09-03T15:02:34.187Z,31.76
2022-09-03T15:05:11.807Z,33.24
2022-09-03T15:07:56.216Z,32.21
2022-09-03T15:10:37.609Z,32.67
2022-09-03T15:13:17.665Z,32.22
2022-09-03T15:16:12.959Z,32.02
2022-09-03T15:19:16.341Z,30.98
2022-09-03T15:22:11.965Z,32.95
2022-09-03T15:25:17.297Z,38.66
2022-09-03T15:28:00.644Z,40.03
2022-09-03T15:30:37.055Z,38.86
2022-09-03T15:33:17.725Z,36.96
2022-09-03T15:36:14.977Z,39.07
2022-09-03T15:38:51.684Z,41.33
2022-09-03T15:41:49.073Z,41.94
2022-09-03T15:44:20.014Z,42.71
2022-09-03T15:47:05.283Z,43.07
2022-09-03T15:49:53.014Z,43.98
2022-09-03T15:52:32.108Z,41.08
2022-09-03T15:55:15.353Z,41.28
2022-09-03T15:57:54.648Z,41.77
2022-09-03T16:00:22.660Z,44.24
2022-09-03T16:02:58.960Z,45.98
2022-09-03T16:05:39.341Z,45.82
2022-09-03T16:08:14.812Z,46.01
2022-09-03T16:11:09.661Z,45.19
2022-09-03T16:13:54.636Z,45.45
2022-09-03T16:16:31.821Z,44.95
2022-09-03T16:19:21.725Z,45.01
2022-09-03T16:22:22.355Z,45.63
2022-09-03T16:25:05.970Z,45.67
2022-09-03T16:27:38.361Z,45.34
2022-09-03T16:30:21.619Z,46.22
2022-09-03T16:33:01.665Z,47.27
2022-09-03T16:35:55.206Z,48.00
2022-09-03T16:38:49.048Z,48.22
2022-09-03T16:41:26.356Z,47.23
2022-09-03T16:44:10.036Z,47.30
2022-09-03T16:47:06.448Z,48.06
2022-09-03T16:49:42.806Z,48.93
2022-09-03T16:52:38.247Z,49.54
2022-09-03T16:55:30.562Z,50.51
2022-09-03T16:58:25.029Z,49.11
2022-09-03T17:01:21.028Z,50.47
2022-09-03T17:04:09.231Z,50.85
2022-09-03T17:06:54.824Z,50.83
2022-09-03T17:09:38.309Z,51.15
2022-09-03T17:12:10.951Z,52.05
2022-09-03T17:15:03.290Z,52.88
2022-09-03T17:17:35.571Z,52.55
2022-09-03T17:20:29.671Z,53.90
2022-09-03T17:23:13.051Z,53.80
2022-09-03T17:25:46.867Z,53.51
2022-09-03T17:28:27.363Z,54.50
2022-09-03T17:31:16.084Z,54.67
2022-09-03T17:34:14.374Z,55.54
2022-09-03T17:36:56.576Z,55.28
2022-09-03T17:39:53.548Z,55.48
2022-09-03T17:42:33.164Z,54.75
2022-09-03T17:45:25.782Z,55.35
2022-09-03T17:48:11.508Z,54.96
2022-09-03T17:51:01.488Z,57.07
2022-09-03T17:53:38.255Z,57.61
2022-09-03T17:56:11.865Z,60.90
2022-09-03T17:58:41.265Z,60.77
2022-09-03T18:01:17.105Z,61.36
2022-09-03T18:03:54.810Z,60.95
2022-09-03T18:06:28.337Z,60.44
2022-09-03T18:09:06.014Z,59.63
2022-09-03T18:11:41.909Z,58.91
2022-09-03T18:14:23.661Z,58.76
2022-09-03T18:17:11.837Z,57.96
2022-09-03T18:20:11.340Z,56.21
2022-09-03T18:23:08.871Z,55.39
2022-09-03T18:25:56.876Z,54.39
2022-09-03T18:28:55.725Z,53.30
2022-09-03T18:31:41.025Z,52.86
2022-09-03T18:34:27.395Z,52.65
2022-09-03T18:37:17.065Z,51.18
2022-09-03T18:40:08.172Z,51.17
2022-09-03T18:43:07.793Z,51.27
2022-09-03T18:47:16.130Z,51.13
2022-09-03T18:49:32.311Z,50.87
2022-09-03T18:52:29.561Z,51.01
2022-09-03T18:55:27.015Z,51.08
2022-09-03T18:58:44.713Z,51.17
2022-09-03T19:01:54.025Z,51.44
2022-09-03T19:04:57.984Z,51.73
2022-09-03T19:08:01.554Z,51.67
2022-09-03T19:10:57.061Z,51.77
2022-09-03T19:13:41.913Z,51.88
2022-09-03T19:16:46.797Z,52.30
2022-09-03T19:19:53.546Z,52.31
2022-09-03T19:22:50.149Z,52.67
2022-09-03T19:25:35.629Z,52.70
2022-09-03T19:28:35.585Z,52.73
2022-09-03T19:31:36.372Z,53.38
2022-09-03T19:34:43.025Z,53.80
2022-09-03T19:37:37.204Z,53.75
2022-09-03T19:40:40.551Z,53.87
2022-09-03T19:43:53.646Z,54.52
2022-09-03T19:47:00.686Z,54.59
2022-09-03T19:50:23.709Z,54.63
2022-09-03T19:53:14.452Z,55.38
2022-09-03T19:56:12.966Z,55.54
2022-09-03T19:59:05.527Z,56.04
2022-09-03T20:01:54.902Z,56.07
2022-09-03T20:04:50.677Z,56.21
2022-09-03T20:07:37.784Z,55.88
2022-09-03T20:10:23.736Z,56.21
2022-09-03T20:13:03.515Z,56.87
2022-09-03T20:15:50.366Z,56.58
2022-09-03T20:18:30.747Z,56.62
2022-09-03T20:21:25.223Z,57.35
2022-09-03T20:24:11.290Z,58.41
2022-09-03T20:26:46.221Z,59.34
2022-09-03T20:29:43.778Z,59.40
2022-09-03T20:32:31.695Z,60.65
2022-09-03T20:35:07.916Z,60.48
2022-09-03T20:37:59.019Z,60.86
2022-09-03T20:40:34.770Z,61.70
2022-09-03T20:43:58.602Z,61.30
2022-09-03T20:47:00.492Z,61.78
2022-09-03T20:49:54.595Z,61.63
2022-09-03T20:52:45.790Z,62.57
2022-09-03T20:55:12.875Z,62.59
2022-09-03T20:57:54.830Z,60.68
2022-09-03T21:00:23.333Z,60.53
2022-09-03T21:03:17.290Z,60.50
2022-09-03T21:06:06.764Z,60.57
2022-09-03T21:08:50.626Z,60.81
2022-09-03T21:11:30.528Z,61.13
2022-09-03T21:14:14.621Z,60.88
2022-09-03T21:17:18.833Z,61.28
2022-09-03T21:20:05.495Z,61.93
2022-09-03T21:23:07.343Z,62.53
2022-09-03T21:25:40.875Z,62.03
2022-09-03T21:28:38.502Z,61.87
2022-09-03T21:31:38.531Z,61.31
2022-09-03T21:34:12.984Z,62.05
2022-09-03T21:36:43.482Z,62.72
2022-09-03T21:39:15.313Z,62.69
2022-09-03T21:41:52.536Z,63.38
2022-09-03T21:44:39.345Z,63.45
2022-09-03T21:47:10.238Z,63.57
2022-09-03T21:50:11.966Z,62.67
2022-09-03T21:53:09.469Z,62.91
2022-09-03T21:56:08.225Z,62.94
2022-09-03T21:58:57.693Z,63.25
2022-09-03T22:01:30.017Z,63.14
2022-09-03T22:03:56.496Z,62.84
2022-09-03T22:06:35.037Z,62.82
2022-09-03T22:09:19.101Z,62.87
2022-09-03T22:12:08.709Z,63.28
2022-09-03T22:14:50.140Z,62.95
2022-09-03T22:17:36.178Z,62.79
2022-09-03T22:20:05.332Z,62.25
2022-09-03T22:22:40.922Z,61.83
2022-09-03T22:25:40.541Z,61.75
2022-09-03T22:28:17.744Z,61.84
2022-09-03T22:30:59.015Z,62.09
2022-09-03T22:33:33.161Z,62.06
2022-09-03T22:36:11.575Z,62.48
2022-09-03T22:38:50.730Z,62.50
2022-09-03T22:41:53.054Z,62.35
2022-09-03T22:44:43.972Z,62.91
2022-09-03T22:47:53.252Z,62.80
2022-09-03T22:50:26.873Z,61.70
2022-09-03T22:52:59.320Z,62.18
2022-09-03T22:55:26.575Z,61.73
2022-09-03T22:58:14.029Z,61.97
2022-09-03T23:00:47.019Z,62.29
2022-09-03T23:03:25.388Z,62.10
2022-09-03T23:06:05.669Z,62.37
2022-09-03T23:08:39.413Z,63.62
2022-09-03T23:11:12.816Z,63.14
2022-09-03T23:13:49.012Z,62.99
2022-09-03T23:16:48.849Z,62.73
2022-09-03T23:21:58.608Z,62.25
2022-09-03T23:24:30.619Z,61.83
2022-09-03T23:27:00.968Z,62.05
2022-09-03T23:29:41.164Z,62.46
2022-09-03T23:32:09.399Z,62.45
2022-09-03T23:34:36.589Z,62.46
2022-09-03T23:37:42.171Z,62.84
2022-09-03T23:40:47.966Z,63.16
2022-09-03T23:43:36.404Z,63.57
2022-09-03T23:46:25.738Z,63.85
2022-09-03T23:49:14.055Z,63.63
2022-09-03T23:52:21.430Z,63.58
2022-09-03T23:54:53.686Z,63.89
2022-09-03T23:57:32.088Z,64.38
